createdAt,value
2023-11-07T00:08:29.114Z,8.47
2023-11-07T00:18:31.022Z,7.37
2023-11-07T00:28:33.023Z,7.00
2023-11-07T00:38:36.859Z,7.43
2023-11-07T00:48:38.679Z,8.40
2023-11-07T00:58:40.676Z,7.68
2023-11-07T01:08:42.507Z,8.48
2023-11-07T01:18:44.422Z,6.45
2023-11-07T01:28:46.295Z,7.00
2023-11-07T01:38:48.243Z,7.85
2023-11-07T01:48:50.287Z,8.68
2023-11-07T01:58:54.437Z,7.30
2023-11-07T02:09:00.009Z,8.23
2023-11-07T02:19:01.799Z,7.57
2023-11-07T02:29:03.549Z,8.00
2023-11-07T02:39:08.622Z,8.10
2023-11-07T02:49:11.720Z,7.55
2023-11-07T02:59:14.519Z,8.90
2023-11-07T03:09:16.369Z,8.97
2023-11-07T03:19:18.193Z,10.77
2023-11-07T03:29:19.909Z,10.60
2023-11-07T03:39:21.781Z,11.52
2023-11-07T03:49:23.997Z,10.70
2023-11-07T03:59:27.042Z,11.18
2023-11-07T04:09:30.707Z,9.30
2023-11-07T04:19:35.088Z,8.50
2023-11-07T04:29:38.236Z,9.13
2023-11-07T04:39:40.472Z,8.68
2023-11-07T04:49:44.334Z,8.43
2023-11-07T04:59:47.560Z,8.48
2023-11-07T05:09:49.414Z,8.65
2023-11-07T05:19:51.092Z,8.32
2023-11-07T05:29:52.890Z,9.38
2023-11-07T05:39:55.519Z,8.23
2023-11-07T05:49:57.245Z,8.50
2023-11-07T06:00:00.047Z,8.45
2023-11-07T06:10:02.340Z,8.32
2023-11-07T06:20:04.640Z,7.93
2023-11-07T06:30:08.477Z,8.80
2023-11-07T06:40:19.035Z,8.98
2023-11-07T06:50:21.249Z,9.48
2023-11-07T07:00:26.576Z,7.93
2023-11-07T07:10:29.023Z,8.82
2023-11-07T07:20:30.781Z,10.00
2023-11-07T07:30:33.688Z,8.40
2023-11-07T07:40:35.411Z,8.27
2023-11-07T07:50:43.003Z,8.80
2023-11-07T08:00:50.971Z,8.55
2023-11-07T08:11:01.873Z,9.23
2023-11-07T08:21:05.520Z,9.38
2023-11-07T08:31:08.373Z,9.88
2023-11-07T08:41:12.909Z,10.93
2023-11-07T08:51:16.123Z,14.50
2023-11-07T09:01:20.231Z,15.73
2023-11-07T09:11:24.370Z,14.70
2023-11-07T09:21:26.000Z,16.15
2023-11-07T09:31:29.657Z,12.15
2023-11-07T09:41:33.258Z,10.88
2023-11-07T09:51:38.965Z,11.77
2023-11-07T10:01:44.299Z,12.02
2023-11-07T10:11:54.670Z,13.05
2023-11-07T10:21:57.590Z,13.23
2023-11-07T10:42:20.527Z,13.20
2023-11-07T10:52:22.631Z,12.45
2023-11-07T11:02:27.821Z,13.10
2023-11-07T11:12:29.915Z,11.73
2023-11-07T11:23:07.768Z,12.33
2023-11-07T11:33:13.519Z,11.80
2023-11-07T11:43:15.436Z,13.95
2023-11-07T11:53:33.843Z,14.50
2023-11-07T12:03:40.391Z,12.50
2023-11-07T12:13:43.818Z,13.43
2023-11-07T12:23:46.483Z,10.25
2023-11-07T12:33:48.657Z,9.77
2023-11-07T12:43:51.632Z,10.25
2023-11-07T12:53:55.215Z,9.95
2023-11-07T13:03:57.126Z,9.70
2023-11-07T13:13:58.974Z,10.80
2023-11-07T13:24:01.740Z,10.83
2023-11-07T13:34:05.073Z,10.32
2023-11-07T13:44:08.764Z,10.07
2023-11-07T13:54:11.671Z,11.00
2023-11-07T14:04:14.342Z,12.15
2023-11-07T14:14:21.347Z,12.05
2023-11-07T14:24:25.598Z,12.10
2023-11-07T14:34:27.402Z,11.43
2023-11-07T14:44:29.205Z,11.53
2023-11-07T14:54:41.357Z,13.87
2023-11-07T15:04:46.735Z,12.18
2023-11-07T15:14:57.528Z,12.45
2023-11-07T15:25:00.650Z,15.00
2023-11-07T15:35:07.565Z,12.05
2023-11-07T15:45:14.042Z,12.50
2023-11-07T15:55:15.729Z,13.65
2023-11-07T16:05:20.005Z,12.50
2023-11-07T16:15:23.068Z,13.88
2023-11-07T16:25:30.297Z,13.70
2023-11-07T16:35:32.463Z,13.23
2023-11-07T16:45:34.620Z,12.93
2023-11-07T16:55:37.822Z,14.03
2023-11-07T17:05:42.729Z,14.18
2023-11-07T17:15:45.250Z,14.30
2023-11-07T17:25:49.024Z,15.57
2023-11-07T17:35:51.565Z,14.63
2023-11-07T17:55:57.583Z,14.15
2023-11-07T18:05:59.959Z,15.52
2023-11-07T18:16:02.308Z,17.13
2023-11-07T18:26:07.894Z,15.57
2023-11-07T18:36:10.374Z,14.05
2023-11-07T18:46:13.672Z,14.97
2023-11-07T18:56:17.839Z,14.80
2023-11-07T19:06:22.667Z,15.52
2023-11-07T19:16:30.308Z,15.20
2023-11-07T19:26:38.916Z,16.05
2023-11-07T19:36:41.800Z,18.33
2023-11-07T19:56:49.202Z,19.90
2023-11-07T20:06:54.741Z,18.10
2023-11-07T20:16:58.239Z,18.80
2023-11-07T20:27:03.505Z,18.40
2023-11-07T20:37:06.564Z,17.40
2023-11-07T20:47:31.271Z,18.58
2023-11-07T20:57:36.543Z,18.20
2023-11-07T21:07:42.022Z,17.63
2023-11-07T21:17:44.814Z,19.20
2023-11-07T21:38:00.928Z,20.55
2023-11-07T21:48:07.648Z,21.40
2023-11-07T21:58:09.625Z,20.27
2023-11-07T22:08:12.253Z,21.65
2023-11-07T22:18:14.670Z,19.65
2023-11-07T22:28:17.520Z,19.80
2023-11-07T22:38:20.540Z,19.27
2023-11-07T22:48:29.347Z,21.35
2023-11-07T22:58:31.307Z,19.95
2023-11-07T23:08:34.498Z,20.38
2023-11-07T23:18:38.248Z,21.90
2023-11-07T23:28:40.190Z,20.35
2023-11-07T23:38:43.286Z,19.60
2023-11-07T23:48:45.067Z,19.70
2023-11-07T23:58:48.911Z,18.25
